KAGC/AGC METAR and TAF weather

Enter ICAO airport designator
Station Type Date Time Source
KAGC METAR 2020/01/21 20:53 UTC NOAA

KAGC 212053Z 28004KT 10SM SCT029 M04/M12 A3048 RMK AO2 SLP347 T10441117 56008


Station Type Date Time Source
KAGC Decoded METAR 2020/01/21 20:53 UTC NOAA

PITTSBURGH ALLEGHENY CTY., PA, United States (KAGC) 40-21N 079-55W 389M
Jan 21, 2020 - 03:53 PM EST / 2020.01.21 2053 UTC
Wind: from the W (280 degrees) at 5 MPH (4 KT):0
Visibility: 10 mile(s):0
Sky conditions: partly cloudy
Temperature: 24.1 F (-4.4 C)
Windchill: 17 F (-8 C):1
Dew Point: 10.9 F (-11.7 C)
Relative Humidity: 56%
Pressure (altimeter): 30.48 in. Hg (1032 hPa)
Pressure tendency: 0.02 inches (0.8 hPa) lower than three hours ago
ob: KAGC 212053Z 28004KT 10SM SCT029 M04/M12 A3048 RMK AO2 SLP347 T10441117 56008
cycle: 21

Station Type Date Time Source
KAGC TAF 2020/01/21 18:28 UTC NOAA

TAF KAGC 211726Z 2118/2218 28005KT P6SM -SHSN OVC025
FM212200 28004KT P6SM BKN120
FM220400 25003KT P6SM SKC
FM221100 18003KT P6SM SKC

Example: see airport list